sensor_id;sensor_type;location;lat;lon;timestamp;P1;durP1;ratioP1;P2;durP2;ratioP2
14268;SDS011;7218;51.480;7.006;2022-07-23T00:01:35;10.23;;;6.15;;
14268;SDS011;7218;51.480;7.006;2022-07-23T00:04:01;8.88;;;6.00;;
14268;SDS011;7218;51.480;7.006;2022-07-23T00:06:28;7.40;;;6.10;;
14268;SDS011;7218;51.480;7.006;2022-07-23T00:08:54;12.05;;;5.70;;
14268;SDS011;7218;51.480;7.006;2022-07-23T00:11:22;8.70;;;5.97;;
14268;SDS011;7218;51.480;7.006;2022-07-23T00:13:53;9.35;;;6.13;;
14268;SDS011;7218;51.480;7.006;2022-07-23T00:16:20;12.52;;;6.30;;
14268;SDS011;7218;51.480;7.006;2022-07-23T00:18:46;9.65;;;5.90;;
14268;SDS011;7218;51.480;7.006;2022-07-23T00:21:13;9.93;;;6.20;;
14268;SDS011;7218;51.480;7.006;2022-07-23T00:23:39;6.95;;;6.13;;
14268;SDS011;7218;51.480;7.006;2022-07-23T00:26:06;6.63;;;6.03;;
14268;SDS011;7218;51.480;7.006;2022-07-23T00:28:34;12.88;;;7.10;;
14268;SDS011;7218;51.480;7.006;2022-07-23T00:31:01;9.25;;;6.63;;
14268;SDS011;7218;51.480;7.006;2022-07-23T00:33:27;9.05;;;6.53;;
14268;SDS011;7218;51.480;7.006;2022-07-23T00:35:54;7.85;;;6.18;;
14268;SDS011;7218;51.480;7.006;2022-07-23T00:38:21;7.70;;;5.95;;
14268;SDS011;7218;51.480;7.006;2022-07-23T00:40:47;7.82;;;6.28;;
14268;SDS011;7218;51.480;7.006;2022-07-23T00:43:14;7.30;;;5.80;;
14268;SDS011;7218;51.480;7.006;2022-07-23T00:45:42;7.80;;;6.50;;
14268;SDS011;7218;51.480;7.006;2022-07-23T00:48:08;8.68;;;6.63;;
14268;SDS011;7218;51.480;7.006;2022-07-23T00:50:46;8.25;;;6.80;;
14268;SDS011;7218;51.480;7.006;2022-07-23T00:59:58;7.13;;;6.43;;
14268;SDS011;7218;51.480;7.006;2022-07-23T01:02:27;10.10;;;6.60;;
14268;SDS011;7218;51.480;7.006;2022-07-23T01:04:53;9.63;;;6.75;;
14268;SDS011;7218;51.480;7.006;2022-07-23T01:07:21;11.27;;;7.35;;
14268;SDS011;7218;51.480;7.006;2022-07-23T01:09:48;8.00;;;7.20;;
14268;SDS011;7218;51.480;7.006;2022-07-23T01:12:15;10.13;;;7.28;;
14268;SDS011;7218;51.480;7.006;2022-07-23T01:14:42;8.48;;;6.80;;
14268;SDS011;7218;51.480;7.006;2022-07-23T01:17:08;8.57;;;6.95;;
14268;SDS011;7218;51.480;7.006;2022-07-23T01:19:36;10.15;;;6.80;;
14268;SDS011;7218;51.480;7.006;2022-07-23T01:22:03;8.80;;;6.72;;
14268;SDS011;7218;51.480;7.006;2022-07-23T01:24:32;8.60;;;7.15;;
14268;SDS011;7218;51.480;7.006;2022-07-23T01:26:58;9.77;;;7.72;;
14268;SDS011;7218;51.480;7.006;2022-07-23T01:29:25;8.13;;;7.32;;
14268;SDS011;7218;51.480;7.006;2022-07-23T01:31:51;8.65;;;7.05;;
14268;SDS011;7218;51.480;7.006;2022-07-23T01:34:17;8.90;;;7.35;;
14268;SDS011;7218;51.480;7.006;2022-07-23T01:36:44;10.25;;;7.68;;
14268;SDS011;7218;51.480;7.006;2022-07-23T01:39:12;9.90;;;7.80;;
14268;SDS011;7218;51.480;7.006;2022-07-23T01:41:40;10.98;;;7.28;;
14268;SDS011;7218;51.480;7.006;2022-07-23T01:44:06;7.78;;;6.95;;
14268;SDS011;7218;51.480;7.006;2022-07-23T01:46:33;9.35;;;7.15;;
14268;SDS011;7218;51.480;7.006;2022-07-23T01:49:00;9.70;;;7.70;;
14268;SDS011;7218;51.480;7.006;2022-07-23T01:51:26;9.93;;;7.65;;
14268;SDS011;7218;51.480;7.006;2022-07-23T01:53:53;8.82;;;7.32;;
14268;SDS011;7218;51.480;7.006;2022-07-23T01:56:19;9.82;;;7.63;;
14268;SDS011;7218;51.480;7.006;2022-07-23T01:58:48;11.23;;;8.05;;
14268;SDS011;7218;51.480;7.006;2022-07-23T02:01:14;10.75;;;7.65;;
14268;SDS011;7218;51.480;7.006;2022-07-23T02:03:41;9.60;;;7.05;;
14268;SDS011;7218;51.480;7.006;2022-07-23T02:06:07;12.40;;;7.75;;
14268;SDS011;7218;51.480;7.006;2022-07-23T02:08:34;9.63;;;7.72;;
14268;SDS011;7218;51.480;7.006;2022-07-23T02:11:01;10.20;;;8.27;;
14268;SDS011;7218;51.480;7.006;2022-07-23T02:13:27;11.73;;;8.23;;
14268;SDS011;7218;51.480;7.006;2022-07-23T02:15:55;12.20;;;8.02;;
14268;SDS011;7218;51.480;7.006;2022-07-23T02:18:22;10.82;;;8.32;;
14268;SDS011;7218;51.480;7.006;2022-07-23T02:20:48;10.30;;;9.00;;
14268;SDS011;7218;51.480;7.006;2022-07-23T02:23:15;10.40;;;8.45;;
14268;SDS011;7218;51.480;7.006;2022-07-23T02:25:41;10.23;;;9.23;;
14268;SDS011;7218;51.480;7.006;2022-07-23T02:28:08;11.38;;;9.65;;
14268;SDS011;7218;51.480;7.006;2022-07-23T02:30:34;13.02;;;9.48;;
14268;SDS011;7218;51.480;7.006;2022-07-23T02:33:04;11.07;;;9.93;;
14268;SDS011;7218;51.480;7.006;2022-07-23T02:35:30;14.10;;;9.73;;
14268;SDS011;7218;51.480;7.006;2022-07-23T02:37:57;12.00;;;10.68;;
14268;SDS011;7218;51.480;7.006;2022-07-23T02:40:24;11.00;;;9.85;;
14268;SDS011;7218;51.480;7.006;2022-07-23T02:42:50;13.88;;;10.18;;
14268;SDS011;7218;51.480;7.006;2022-07-23T02:45:17;12.65;;;9.98;;
14268;SDS011;7218;51.480;7.006;2022-07-23T02:47:43;13.00;;;9.38;;
14268;SDS011;7218;51.480;7.006;2022-07-23T02:50:11;10.85;;;9.70;;
14268;SDS011;7218;51.480;7.006;2022-07-23T02:52:38;11.43;;;9.32;;
14268;SDS011;7218;51.480;7.006;2022-07-23T02:55:05;13.65;;;9.02;;
14268;SDS011;7218;51.480;7.006;2022-07-23T02:57:32;12.45;;;9.57;;
14268;SDS011;7218;51.480;7.006;2022-07-23T02:59:58;12.23;;;9.68;;
14268;SDS011;7218;51.480;7.006;2022-07-23T03:02:25;10.15;;;9.07;;
14268;SDS011;7218;51.480;7.006;2022-07-23T03:04:51;10.85;;;9.23;;
14268;SDS011;7218;51.480;7.006;2022-07-23T03:07:20;10.85;;;9.52;;
14268;SDS011;7218;51.480;7.006;2022-07-23T03:09:46;10.23;;;8.95;;
14268;SDS011;7218;51.480;7.006;2022-07-23T03:12:13;12.57;;;8.60;;
14268;SDS011;7218;51.480;7.006;2022-07-23T03:14:39;11.60;;;8.85;;
14268;SDS011;7218;51.480;7.006;2022-07-23T03:17:06;10.88;;;8.68;;
14268;SDS011;7218;51.480;7.006;2022-07-23T03:19:33;12.25;;;9.15;;
14268;SDS011;7218;51.480;7.006;2022-07-23T03:21:59;10.35;;;8.93;;
14268;SDS011;7218;51.480;7.006;2022-07-23T03:24:27;10.23;;;9.23;;
14268;SDS011;7218;51.480;7.006;2022-07-23T03:27:14;14.55;;;9.95;;
14268;SDS011;7218;51.480;7.006;2022-07-23T03:29:41;11.18;;;9.55;;
14268;SDS011;7218;51.480;7.006;2022-07-23T03:32:07;10.32;;;9.32;;
14268;SDS011;7218;51.480;7.006;2022-07-23T03:34:35;10.95;;;9.60;;
14268;SDS011;7218;51.480;7.006;2022-07-23T03:37:23;15.02;;;9.20;;
14268;SDS011;7218;51.480;7.006;2022-07-23T03:39:51;14.27;;;9.00;;
14268;SDS011;7218;51.480;7.006;2022-07-23T03:42:17;12.98;;;9.60;;
14268;SDS011;7218;51.480;7.006;2022-07-23T03:44:44;11.93;;;9.45;;
14268;SDS011;7218;51.480;7.006;2022-07-23T03:47:10;11.35;;;9.88;;
14268;SDS011;7218;51.480;7.006;2022-07-23T03:49:37;11.35;;;9.20;;
14268;SDS011;7218;51.480;7.006;2022-07-23T03:52:04;11.75;;;9.70;;
14268;SDS011;7218;51.480;7.006;2022-07-23T03:54:31;11.98;;;9.80;;
14268;SDS011;7218;51.480;7.006;2022-07-23T03:56:58;11.85;;;9.80;;
14268;SDS011;7218;51.480;7.006;2022-07-23T03:59:25;11.65;;;10.27;;
14268;SDS011;7218;51.480;7.006;2022-07-23T04:01:51;13.68;;;10.90;;
14268;SDS011;7218;51.480;7.006;2022-07-23T04:04:18;14.50;;;11.23;;
14268;SDS011;7218;51.480;7.006;2022-07-23T04:06:45;13.40;;;10.95;;
14268;SDS011;7218;51.480;7.006;2022-07-23T04:09:11;13.73;;;11.43;;
14268;SDS011;7218;51.480;7.006;2022-07-23T04:11:38;11.43;;;10.18;;
14268;SDS011;7218;51.480;7.006;2022-07-23T04:14:06;12.48;;;10.40;;
14268;SDS011;7218;51.480;7.006;2022-07-23T04:16:33;12.82;;;11.02;;
14268;SDS011;7218;51.480;7.006;2022-07-23T04:18:59;12.85;;;11.02;;
14268;SDS011;7218;51.480;7.006;2022-07-23T04:21:26;12.98;;;11.65;;
14268;SDS011;7218;51.480;7.006;2022-07-23T04:23:52;14.82;;;12.88;;
14268;SDS011;7218;51.480;7.006;2022-07-23T04:26:19;13.70;;;12.23;;
14268;SDS011;7218;51.480;7.006;2022-07-23T04:28:46;17.35;;;12.65;;
14268;SDS011;7218;51.480;7.006;2022-07-23T04:31:14;16.65;;;12.35;;
14268;SDS011;7218;51.480;7.006;2022-07-23T04:33:40;15.13;;;12.85;;
14268;SDS011;7218;51.480;7.006;2022-07-23T04:36:07;17.05;;;11.98;;
14268;SDS011;7218;51.480;7.006;2022-07-23T04:38:33;13.55;;;11.68;;
14268;SDS011;7218;51.480;7.006;2022-07-23T04:41:00;13.00;;;11.32;;
14268;SDS011;7218;51.480;7.006;2022-07-23T04:43:27;15.40;;;11.20;;
14268;SDS011;7218;51.480;7.006;2022-07-23T04:45:53;13.40;;;11.05;;
14268;SDS011;7218;51.480;7.006;2022-07-23T04:48:21;12.90;;;10.15;;
14268;SDS011;7218;51.480;7.006;2022-07-23T04:50:48;13.05;;;9.95;;
14268;SDS011;7218;51.480;7.006;2022-07-23T04:53:14;11.35;;;9.63;;
14268;SDS011;7218;51.480;7.006;2022-07-23T04:55:42;11.77;;;9.65;;
14268;SDS011;7218;51.480;7.006;2022-07-23T04:58:09;11.75;;;9.98;;
14268;SDS011;7218;51.480;7.006;2022-07-23T05:00:35;13.73;;;9.57;;
14268;SDS011;7218;51.480;7.006;2022-07-23T05:03:02;10.25;;;9.25;;
14268;SDS011;7218;51.480;7.006;2022-07-23T05:05:30;10.48;;;9.38;;
14268;SDS011;7218;51.480;7.006;2022-07-23T05:07:57;11.88;;;8.85;;
14268;SDS011;7218;51.480;7.006;2022-07-23T05:10:23;10.85;;;9.73;;
14268;SDS011;7218;51.480;7.006;2022-07-23T05:12:50;11.65;;;10.07;;
14268;SDS011;7218;51.480;7.006;2022-07-23T05:15:16;12.00;;;10.75;;
14268;SDS011;7218;51.480;7.006;2022-07-23T05:17:43;12.45;;;10.60;;
14268;SDS011;7218;51.480;7.006;2022-07-23T05:20:09;15.73;;;10.52;;
14268;SDS011;7218;51.480;7.006;2022-07-23T05:22:38;13.52;;;11.02;;
14268;SDS011;7218;51.480;7.006;2022-07-23T05:25:04;15.10;;;11.05;;
14268;SDS011;7218;51.480;7.006;2022-07-23T05:27:32;17.17;;;11.07;;
14268;SDS011;7218;51.480;7.006;2022-07-23T05:29:58;14.20;;;11.85;;
14268;SDS011;7218;51.480;7.006;2022-07-23T05:32:25;12.90;;;10.55;;
14268;SDS011;7218;51.480;7.006;2022-07-23T05:34:51;16.02;;;11.68;;
14268;SDS011;7218;51.480;7.006;2022-07-23T05:37:18;16.70;;;12.48;;
14268;SDS011;7218;51.480;7.006;2022-07-23T05:39:45;13.95;;;11.88;;
14268;SDS011;7218;51.480;7.006;2022-07-23T05:42:12;13.55;;;11.30;;
14268;SDS011;7218;51.480;7.006;2022-07-23T05:44:38;14.15;;;11.93;;
14268;SDS011;7218;51.480;7.006;2022-07-23T05:47:05;15.57;;;11.45;;
14268;SDS011;7218;51.480;7.006;2022-07-23T05:49:31;13.57;;;11.63;;
14268;SDS011;7218;51.480;7.006;2022-07-23T05:51:58;13.70;;;12.05;;
14268;SDS011;7218;51.480;7.006;2022-07-23T05:54:24;13.32;;;11.63;;
14268;SDS011;7218;51.480;7.006;2022-07-23T05:56:52;14.45;;;12.50;;
14268;SDS011;7218;51.480;7.006;2022-07-23T05:59:19;13.82;;;12.20;;
14268;SDS011;7218;51.480;7.006;2022-07-23T06:01:45;13.95;;;12.32;;
14268;SDS011;7218;51.480;7.006;2022-07-23T06:04:12;15.65;;;13.15;;
14268;SDS011;7218;51.480;7.006;2022-07-23T06:06:38;15.00;;;12.63;;
14268;SDS011;7218;51.480;7.006;2022-07-23T06:09:05;15.40;;;12.65;;
14268;SDS011;7218;51.480;7.006;2022-07-23T06:11:31;14.85;;;12.95;;
14268;SDS011;7218;51.480;7.006;2022-07-23T06:13:59;17.23;;;13.15;;
14268;SDS011;7218;51.480;7.006;2022-07-23T06:16:26;16.15;;;13.07;;
14268;SDS011;7218;51.480;7.006;2022-07-23T06:18:52;14.15;;;12.63;;
14268;SDS011;7218;51.480;7.006;2022-07-23T06:21:19;14.50;;;12.93;;
14268;SDS011;7218;51.480;7.006;2022-07-23T06:23:45;13.95;;;12.55;;
14268;SDS011;7218;51.480;7.006;2022-07-23T06:26:12;16.48;;;13.32;;
14268;SDS011;7218;51.480;7.006;2022-07-23T06:28:38;15.80;;;13.60;;
14268;SDS011;7218;51.480;7.006;2022-07-23T06:31:06;17.38;;;13.75;;
14268;SDS011;7218;51.480;7.006;2022-07-23T06:33:33;17.20;;;12.85;;
14268;SDS011;7218;51.480;7.006;2022-07-23T06:36:00;14.93;;;12.38;;
14268;SDS011;7218;51.480;7.006;2022-07-23T06:38:26;15.20;;;12.65;;
14268;SDS011;7218;51.480;7.006;2022-07-23T06:40:53;16.42;;;12.88;;
14268;SDS011;7218;51.480;7.006;2022-07-23T06:43:19;17.63;;;12.45;;
14268;SDS011;7218;51.480;7.006;2022-07-23T06:45:45;16.08;;;12.82;;
14268;SDS011;7218;51.480;7.006;2022-07-23T06:48:13;17.88;;;13.73;;
14268;SDS011;7218;51.480;7.006;2022-07-23T06:50:40;17.95;;;13.88;;
14268;SDS011;7218;51.480;7.006;2022-07-23T06:53:07;16.95;;;13.32;;
14268;SDS011;7218;51.480;7.006;2022-07-23T06:55:33;17.48;;;14.30;;
14268;SDS011;7218;51.480;7.006;2022-07-23T06:58:03;21.58;;;16.48;;
14268;SDS011;7218;51.480;7.006;2022-07-23T07:00:30;19.60;;;16.77;;
14268;SDS011;7218;51.480;7.006;2022-07-23T07:02:57;19.85;;;16.38;;
14268;SDS011;7218;51.480;7.006;2022-07-23T07:05:25;23.05;;;17.65;;
14268;SDS011;7218;51.480;7.006;2022-07-23T07:07:52;21.25;;;16.35;;
14268;SDS011;7218;51.480;7.006;2022-07-23T07:10:20;20.50;;;16.80;;
14268;SDS011;7218;51.480;7.006;2022-07-23T07:12:46;20.98;;;17.10;;
14268;SDS011;7218;51.480;7.006;2022-07-23T07:15:13;20.65;;;16.77;;
14268;SDS011;7218;51.480;7.006;2022-07-23T07:17:40;19.98;;;16.10;;
14268;SDS011;7218;51.480;7.006;2022-07-23T07:20:07;22.15;;;16.55;;
14268;SDS011;7218;51.480;7.006;2022-07-23T07:22:36;19.13;;;16.25;;
14268;SDS011;7218;51.480;7.006;2022-07-23T07:25:03;17.35;;;15.13;;
14268;SDS011;7218;51.480;7.006;2022-07-23T07:27:30;19.63;;;14.38;;
14268;SDS011;7218;51.480;7.006;2022-07-23T07:29:56;17.10;;;15.30;;
14268;SDS011;7218;51.480;7.006;2022-07-23T07:32:23;19.15;;;14.57;;
14268;SDS011;7218;51.480;7.006;2022-07-23T07:34:50;19.38;;;14.75;;
14268;SDS011;7218;51.480;7.006;2022-07-23T07:37:17;15.88;;;13.70;;
14268;SDS011;7218;51.480;7.006;2022-07-23T07:39:44;16.30;;;13.20;;
14268;SDS011;7218;51.480;7.006;2022-07-23T07:42:11;16.08;;;12.45;;
14268;SDS011;7218;51.480;7.006;2022-07-23T07:44:37;17.95;;;13.93;;
14268;SDS011;7218;51.480;7.006;2022-07-23T07:47:04;16.23;;;12.95;;
14268;SDS011;7218;51.480;7.006;2022-07-23T07:49:31;17.70;;;13.40;;
14268;SDS011;7218;51.480;7.006;2022-07-23T07:51:58;13.30;;;11.75;;
14268;SDS011;7218;51.480;7.006;2022-07-23T07:54:24;13.32;;;11.20;;
14268;SDS011;7218;51.480;7.006;2022-07-23T07:56:52;13.02;;;10.63;;
14268;SDS011;7218;51.480;7.006;2022-07-23T07:59:19;13.52;;;9.93;;
14268;SDS011;7218;51.480;7.006;2022-07-23T08:01:45;11.57;;;8.80;;
14268;SDS011;7218;51.480;7.006;2022-07-23T08:04:12;11.32;;;9.10;;
14268;SDS011;7218;51.480;7.006;2022-07-23T08:06:38;10.30;;;8.52;;
14268;SDS011;7218;51.480;7.006;2022-07-23T08:09:05;9.23;;;7.43;;
14268;SDS011;7218;51.480;7.006;2022-07-23T08:11:31;9.20;;;6.50;;
14268;SDS011;7218;51.480;7.006;2022-07-23T08:13:59;7.60;;;6.85;;
14268;SDS011;7218;51.480;7.006;2022-07-23T08:16:26;9.13;;;6.40;;
14268;SDS011;7218;51.480;7.006;2022-07-23T08:18:52;8.07;;;6.65;;
14268;SDS011;7218;51.480;7.006;2022-07-23T08:21:19;8.45;;;6.63;;
14268;SDS011;7218;51.480;7.006;2022-07-23T08:23:45;7.47;;;6.43;;
14268;SDS011;7218;51.480;7.006;2022-07-23T08:26:12;7.80;;;7.00;;
14268;SDS011;7218;51.480;7.006;2022-07-23T08:28:38;9.23;;;6.40;;
14268;SDS011;7218;51.480;7.006;2022-07-23T08:31:06;6.68;;;4.82;;
14268;SDS011;7218;51.480;7.006;2022-07-23T08:33:33;6.90;;;5.20;;
14268;SDS011;7218;51.480;7.006;2022-07-23T08:36:00;11.27;;;5.03;;
14268;SDS011;7218;51.480;7.006;2022-07-23T08:38:28;6.95;;;5.60;;
14268;SDS011;7218;51.480;7.006;2022-07-23T08:40:55;8.15;;;5.40;;
14268;SDS011;7218;51.480;7.006;2022-07-23T08:43:23;7.47;;;5.90;;
14268;SDS011;7218;51.480;7.006;2022-07-23T08:45:52;6.47;;;5.80;;
14268;SDS011;7218;51.480;7.006;2022-07-23T08:48:23;7.97;;;5.38;;
14268;SDS011;7218;51.480;7.006;2022-07-23T08:50:52;6.90;;;5.18;;
14268;SDS011;7218;51.480;7.006;2022-07-23T08:53:20;7.18;;;4.57;;
14268;SDS011;7218;51.480;7.006;2022-07-23T08:55:48;7.18;;;4.15;;
14268;SDS011;7218;51.480;7.006;2022-07-23T08:58:16;6.30;;;4.13;;
14268;SDS011;7218;51.480;7.006;2022-07-23T09:00:43;8.50;;;4.18;;
14268;SDS011;7218;51.480;7.006;2022-07-23T09:03:12;7.95;;;3.97;;
14268;SDS011;7218;51.480;7.006;2022-07-23T09:05:43;7.00;;;4.00;;
14268;SDS011;7218;51.480;7.006;2022-07-23T09:08:11;3.72;;;3.30;;
14268;SDS011;7218;51.480;7.006;2022-07-23T09:10:49;6.03;;;3.03;;
14268;SDS011;7218;51.480;7.006;2022-07-23T09:13:25;3.88;;;3.25;;
14268;SDS011;7218;51.480;7.006;2022-07-23T09:15:53;6.55;;;3.80;;
14268;SDS011;7218;51.480;7.006;2022-07-23T09:18:32;5.07;;;4.22;;
14268;SDS011;7218;51.480;7.006;2022-07-23T09:21:08;5.90;;;4.32;;
14268;SDS011;7218;51.480;7.006;2022-07-23T09:23:39;6.82;;;3.78;;
14268;SDS011;7218;51.480;7.006;2022-07-23T09:29:06;5.95;;;3.22;;
14268;SDS011;7218;51.480;7.006;2022-07-23T09:31:41;3.30;;;2.70;;
14268;SDS011;7218;51.480;7.006;2022-07-23T09:34:10;5.80;;;3.28;;
14268;SDS011;7218;51.480;7.006;2022-07-23T09:36:40;4.35;;;3.20;;
14268;SDS011;7218;51.480;7.006;2022-07-23T09:39:07;5.22;;;3.20;;
14268;SDS011;7218;51.480;7.006;2022-07-23T09:41:38;4.20;;;3.50;;
14268;SDS011;7218;51.480;7.006;2022-07-23T09:44:11;7.47;;;3.70;;
14268;SDS011;7218;51.480;7.006;2022-07-23T09:46:39;4.53;;;3.00;;
14268;SDS011;7218;51.480;7.006;2022-07-23T09:49:11;5.22;;;3.10;;
14268;SDS011;7218;51.480;7.006;2022-07-23T09:51:44;6.63;;;3.30;;
14268;SDS011;7218;51.480;7.006;2022-07-23T09:54:20;6.60;;;3.58;;
14268;SDS011;7218;51.480;7.006;2022-07-23T09:56:51;4.43;;;2.80;;
14268;SDS011;7218;51.480;7.006;2022-07-23T09:59:18;4.20;;;3.30;;
14268;SDS011;7218;51.480;7.006;2022-07-23T10:01:51;6.05;;;3.28;;
14268;SDS011;7218;51.480;7.006;2022-07-23T10:04:18;4.40;;;2.80;;
14268;SDS011;7218;51.480;7.006;2022-07-23T10:06:48;5.00;;;3.50;;
14268;SDS011;7218;51.480;7.006;2022-07-23T10:09:20;3.72;;;2.83;;
14268;SDS011;7218;51.480;7.006;2022-07-23T10:11:50;3.85;;;2.83;;
14268;SDS011;7218;51.480;7.006;2022-07-23T10:14:22;5.25;;;3.40;;
14268;SDS011;7218;51.480;7.006;2022-07-23T10:16:48;4.25;;;2.75;;
14268;SDS011;7218;51.480;7.006;2022-07-23T10:19:15;4.40;;;2.53;;
14268;SDS011;7218;51.480;7.006;2022-07-23T10:21:44;5.32;;;2.58;;
14268;SDS011;7218;51.480;7.006;2022-07-23T10:24:18;4.05;;;2.92;;
14268;SDS011;7218;51.480;7.006;2022-07-23T10:26:58;3.75;;;2.67;;
14268;SDS011;7218;51.480;7.006;2022-07-23T10:29:45;3.50;;;2.83;;
14268;SDS011;7218;51.480;7.006;2022-07-23T10:32:17;3.22;;;2.60;;
14268;SDS011;7218;51.480;7.006;2022-07-23T10:34:55;2.65;;;2.33;;
14268;SDS011;7218;51.480;7.006;2022-07-23T10:37:32;2.83;;;2.10;;
14268;SDS011;7218;51.480;7.006;2022-07-23T10:40:12;3.65;;;2.05;;
14268;SDS011;7218;51.480;7.006;2022-07-23T10:42:42;3.55;;;2.63;;
14268;SDS011;7218;51.480;7.006;2022-07-23T10:45:22;3.40;;;2.33;;
14268;SDS011;7218;51.480;7.006;2022-07-23T10:47:53;3.83;;;2.40;;
14268;SDS011;7218;51.480;7.006;2022-07-23T10:50:20;2.20;;;2.00;;
14268;SDS011;7218;51.480;7.006;2022-07-23T10:55:42;2.65;;;1.95;;
14268;SDS011;7218;51.480;7.006;2022-07-23T10:58:11;2.80;;;2.05;;
14268;SDS011;7218;51.480;7.006;2022-07-23T11:00:44;2.33;;;1.65;;
14268;SDS011;7218;51.480;7.006;2022-07-23T11:03:27;2.47;;;1.90;;
14268;SDS011;7218;51.480;7.006;2022-07-23T11:05:57;2.33;;;2.13;;
14268;SDS011;7218;51.480;7.006;2022-07-23T11:08:24;3.72;;;2.10;;
14268;SDS011;7218;51.480;7.006;2022-07-23T11:10:56;3.30;;;2.10;;
14268;SDS011;7218;51.480;7.006;2022-07-23T11:16:25;2.65;;;1.90;;
14268;SDS011;7218;51.480;7.006;2022-07-23T11:18:53;3.95;;;2.30;;
14268;SDS011;7218;51.480;7.006;2022-07-23T11:24:10;2.50;;;1.98;;
14268;SDS011;7218;51.480;7.006;2022-07-23T11:26:44;2.67;;;2.00;;
14268;SDS011;7218;51.480;7.006;2022-07-23T11:29:37;2.78;;;2.00;;
14268;SDS011;7218;51.480;7.006;2022-07-23T11:32:18;3.00;;;1.90;;
14268;SDS011;7218;51.480;7.006;2022-07-23T11:34:55;3.20;;;2.20;;
14268;SDS011;7218;51.480;7.006;2022-07-23T11:40:11;2.50;;;2.10;;
14268;SDS011;7218;51.480;7.006;2022-07-23T11:42:40;2.38;;;1.80;;
14268;SDS011;7218;51.480;7.006;2022-07-23T11:45:18;2.33;;;2.00;;
14268;SDS011;7218;51.480;7.006;2022-07-23T11:47:54;2.35;;;1.90;;
14268;SDS011;7218;51.480;7.006;2022-07-23T11:50:22;3.15;;;1.60;;
14268;SDS011;7218;51.480;7.006;2022-07-23T11:52:49;4.15;;;1.90;;
14268;SDS011;7218;51.480;7.006;2022-07-23T11:55:16;2.08;;;1.88;;
14268;SDS011;7218;51.480;7.006;2022-07-23T11:57:44;3.30;;;2.00;;
14268;SDS011;7218;51.480;7.006;2022-07-23T12:00:11;2.03;;;1.80;;
14268;SDS011;7218;51.480;7.006;2022-07-23T12:02:39;3.80;;;2.00;;
14268;SDS011;7218;51.480;7.006;2022-07-23T12:05:10;2.00;;;1.80;;
14268;SDS011;7218;51.480;7.006;2022-07-23T12:07:38;2.90;;;1.80;;
14268;SDS011;7218;51.480;7.006;2022-07-23T12:10:10;1.90;;;1.63;;
14268;SDS011;7218;51.480;7.006;2022-07-23T12:12:38;2.45;;;1.65;;
14268;SDS011;7218;51.480;7.006;2022-07-23T12:15:08;1.55;;;1.45;;
14268;SDS011;7218;51.480;7.006;2022-07-23T12:17:36;1.70;;;1.60;;
14268;SDS011;7218;51.480;7.006;2022-07-23T12:20:04;3.47;;;1.85;;
14268;SDS011;7218;51.480;7.006;2022-07-23T12:22:34;2.95;;;1.70;;
14268;SDS011;7218;51.480;7.006;2022-07-23T12:25:03;2.10;;;1.67;;
14268;SDS011;7218;51.480;7.006;2022-07-23T12:27:32;2.30;;;1.75;;
14268;SDS011;7218;51.480;7.006;2022-07-23T12:29:59;2.92;;;1.73;;
14268;SDS011;7218;51.480;7.006;2022-07-23T12:32:43;2.95;;;1.80;;
14268;SDS011;7218;51.480;7.006;2022-07-23T12:35:11;4.88;;;1.80;;
14268;SDS011;7218;51.480;7.006;2022-07-23T12:37:38;2.63;;;1.50;;
14268;SDS011;7218;51.480;7.006;2022-07-23T12:40:23;2.78;;;1.92;;
14268;SDS011;7218;51.480;7.006;2022-07-23T12:42:53;2.45;;;1.65;;
14268;SDS011;7218;51.480;7.006;2022-07-23T12:45:20;2.35;;;1.63;;
14268;SDS011;7218;51.480;7.006;2022-07-23T12:47:56;2.45;;;1.67;;
14268;SDS011;7218;51.480;7.006;2022-07-23T12:50:35;2.17;;;1.55;;
14268;SDS011;7218;51.480;7.006;2022-07-23T12:53:08;1.85;;;1.70;;
14268;SDS011;7218;51.480;7.006;2022-07-23T12:55:36;2.78;;;1.83;;
14268;SDS011;7218;51.480;7.006;2022-07-23T12:58:04;1.85;;;1.65;;
14268;SDS011;7218;51.480;7.006;2022-07-23T13:00:33;2.25;;;1.77;;
14268;SDS011;7218;51.480;7.006;2022-07-23T13:03:23;2.17;;;1.50;;
14268;SDS011;7218;51.480;7.006;2022-07-23T13:05:51;2.75;;;1.80;;
14268;SDS011;7218;51.480;7.006;2022-07-23T13:08:18;2.95;;;1.90;;
14268;SDS011;7218;51.480;7.006;2022-07-23T13:10:44;2.85;;;1.65;;
14268;SDS011;7218;51.480;7.006;2022-07-23T13:13:13;2.03;;;1.60;;
14268;SDS011;7218;51.480;7.006;2022-07-23T13:15:40;2.92;;;1.80;;
14268;SDS011;7218;51.480;7.006;2022-07-23T13:18:07;3.67;;;1.80;;
14268;SDS011;7218;51.480;7.006;2022-07-23T13:20:35;2.40;;;1.70;;
14268;SDS011;7218;51.480;7.006;2022-07-23T13:23:03;3.28;;;1.60;;
14268;SDS011;7218;51.480;7.006;2022-07-23T13:25:30;3.17;;;1.90;;
14268;SDS011;7218;51.480;7.006;2022-07-23T13:27:57;2.33;;;1.80;;
14268;SDS011;7218;51.480;7.006;2022-07-23T13:30:23;2.25;;;1.75;;
14268;SDS011;7218;51.480;7.006;2022-07-23T13:32:50;1.90;;;1.80;;
14268;SDS011;7218;51.480;7.006;2022-07-23T13:35:17;2.88;;;1.80;;
14268;SDS011;7218;51.480;7.006;2022-07-23T13:37:45;3.20;;;2.00;;
14268;SDS011;7218;51.480;7.006;2022-07-23T13:40:11;2.92;;;1.60;;
14268;SDS011;7218;51.480;7.006;2022-07-23T13:42:38;1.52;;;1.42;;
14268;SDS011;7218;51.480;7.006;2022-07-23T13:45:05;2.08;;;1.88;;
14268;SDS011;7218;51.480;7.006;2022-07-23T13:47:33;2.40;;;1.70;;
14268;SDS011;7218;51.480;7.006;2022-07-23T13:50:02;2.20;;;1.65;;
14268;SDS011;7218;51.480;7.006;2022-07-23T13:52:29;2.63;;;1.80;;
14268;SDS011;7218;51.480;7.006;2022-07-23T13:54:58;1.85;;;1.60;;
14268;SDS011;7218;51.480;7.006;2022-07-23T13:57:24;2.10;;;1.90;;
14268;SDS011;7218;51.480;7.006;2022-07-23T13:59:51;3.38;;;2.85;;
14268;SDS011;7218;51.480;7.006;2022-07-23T14:02:17;2.00;;;1.80;;
14268;SDS011;7218;51.480;7.006;2022-07-23T14:04:44;2.90;;;2.10;;
14268;SDS011;7218;51.480;7.006;2022-07-23T14:07:10;2.10;;;1.90;;
14268;SDS011;7218;51.480;7.006;2022-07-23T14:09:37;2.20;;;2.00;;
14268;SDS011;7218;51.480;7.006;2022-07-23T14:12:05;2.30;;;2.10;;
14268;SDS011;7218;51.480;7.006;2022-07-23T14:14:32;2.45;;;2.20;;
14268;SDS011;7218;51.480;7.006;2022-07-23T14:16:59;2.70;;;2.10;;
14268;SDS011;7218;51.480;7.006;2022-07-23T14:19:26;5.90;;;2.20;;
14268;SDS011;7218;51.480;7.006;2022-07-23T14:21:52;3.20;;;2.47;;
14268;SDS011;7218;51.480;7.006;2022-07-23T14:24:19;3.20;;;2.40;;
14268;SDS011;7218;51.480;7.006;2022-07-23T14:26:46;2.05;;;1.80;;
14268;SDS011;7218;51.480;7.006;2022-07-23T14:29:14;3.35;;;2.47;;
14268;SDS011;7218;51.480;7.006;2022-07-23T14:31:40;2.70;;;1.80;;
14268;SDS011;7218;51.480;7.006;2022-07-23T14:34:06;3.67;;;2.20;;
14268;SDS011;7218;51.480;7.006;2022-07-23T14:36:33;2.80;;;2.40;;
14268;SDS011;7218;51.480;7.006;2022-07-23T14:39:00;3.08;;;2.25;;
14268;SDS011;7218;51.480;7.006;2022-07-23T14:41:26;5.03;;;2.40;;
14268;SDS011;7218;51.480;7.006;2022-07-23T14:43:53;2.22;;;1.80;;
14268;SDS011;7218;51.480;7.006;2022-07-23T14:46:20;1.80;;;1.70;;
14268;SDS011;7218;51.480;7.006;2022-07-23T14:48:47;2.70;;;2.03;;
14268;SDS011;7218;51.480;7.006;2022-07-23T14:51:13;2.30;;;2.10;;
14268;SDS011;7218;51.480;7.006;2022-07-23T14:53:40;3.08;;;2.22;;
14268;SDS011;7218;51.480;7.006;2022-07-23T14:56:06;2.55;;;2.00;;
14268;SDS011;7218;51.480;7.006;2022-07-23T14:58:33;4.45;;;2.13;;
14268;SDS011;7218;51.480;7.006;2022-07-23T15:01:01;2.83;;;2.10;;
14268;SDS011;7218;51.480;7.006;2022-07-23T15:03:29;3.50;;;2.30;;
14268;SDS011;7218;51.480;7.006;2022-07-23T15:05:55;3.28;;;2.10;;
14268;SDS011;7218;51.480;7.006;2022-07-23T15:08:22;4.97;;;2.20;;
14268;SDS011;7218;51.480;7.006;2022-07-23T15:10:48;1.92;;;1.80;;
14268;SDS011;7218;51.480;7.006;2022-07-23T15:13:15;3.28;;;2.40;;
14268;SDS011;7218;51.480;7.006;2022-07-23T15:15:41;2.85;;;2.03;;
14268;SDS011;7218;51.480;7.006;2022-07-23T15:18:08;3.83;;;2.20;;
14268;SDS011;7218;51.480;7.006;2022-07-23T15:20:35;3.20;;;2.30;;